Time;durP1;ratioP1;P1;durP2;ratioP2;P2;SDS_P1;SDS_P2;PMS_P1;PMS_P2;Temp;Humidity;BMP_temperature;BMP_pressure;BME280_temperature;BME280_humidity;BME280_pressure;Samples;Min_cycle;Max_cycle;Signal;HPM_P1;HPM_P2
2023/07/20 00:01:38;;;;;;;4.18;1.80;;;15.80;99.90;;;;;;5072158;28;20149;-62
2023/07/20 00:04:03;;;;;;;3.78;1.75;;;15.80;99.90;;;;;;5073735;28;20053;-62
2023/07/20 00:06:29;;;;;;;5.13;2.60;;;15.90;99.90;;;;;;5072014;28;20400;-62
2023/07/20 00:08:55;;;;;;;4.97;2.20;;;15.80;99.90;;;;;;5073620;28;20036;-62
2023/07/20 00:11:25;;;;;;;4.32;2.17;;;15.80;99.90;;;;;;5073599;28;20111;-62
2023/07/20 00:13:51;;;;;;;4.05;2.05;;;15.80;99.90;;;;;;5073240;28;20075;-62
2023/07/20 00:16:17;;;;;;;6.13;2.70;;;15.80;99.90;;;;;;5073509;28;20044;-62
2023/07/20 00:18:43;;;;;;;4.75;1.92;;;15.80;99.90;;;;;;5088867;28;20109;-62
2023/07/20 00:21:09;;;;;;;5.57;2.20;;;15.80;99.90;;;;;;5073127;28;20202;-62
2023/07/20 00:23:35;;;;;;;3.92;1.73;;;15.80;99.90;;;;;;5071838;28;20036;-62
2023/07/20 00:26:00;;;;;;;4.15;2.10;;;15.90;99.90;;;;;;5073414;28;20507;-62
2023/07/20 00:28:26;;;;;;;4.80;2.67;;;15.80;99.90;;;;;;5073016;28;20044;-63
2023/07/20 00:30:52;;;;;;;5.05;2.50;;;15.80;99.90;;;;;;5072802;28;20049;-62
2023/07/20 00:33:18;;;;;;;4.95;2.92;;;15.80;99.90;;;;;;5072008;28;20074;-62
2023/07/20 00:35:44;;;;;;;4.80;2.60;;;15.70;99.90;;;;;;5071814;28;20036;-61
2023/07/20 00:38:10;;;;;;;4.43;2.03;;;15.70;99.90;;;;;;5073037;28;20037;-62
2023/07/20 00:40:40;;;;;;;4.78;2.38;;;15.70;99.90;;;;;;5073321;28;20036;-61
2023/07/20 00:43:06;;;;;;;4.05;2.00;;;15.70;99.90;;;;;;5071975;28;20508;-61
2023/07/20 00:45:33;;;;;;;4.07;1.95;;;15.70;99.90;;;;;;5073227;28;20048;-62
2023/07/20 00:48:01;;;;;;;6.75;2.67;;;15.70;99.90;;;;;;5073231;28;20028;-61
2023/07/20 00:50:28;;;;;;;4.63;2.53;;;15.70;99.90;;;;;;5072703;28;20119;-62
2023/07/20 00:52:55;;;;;;;5.00;2.30;;;15.70;99.90;;;;;;5073048;28;20477;-61
2023/07/20 00:55:21;;;;;;;4.95;2.50;;;15.70;99.90;;;;;;5073119;28;20115;-61
2023/07/20 00:57:47;;;;;;;5.28;2.10;;;15.70;99.90;;;;;;5088695;28;20537;-62
2023/07/20 01:00:14;;;;;;;4.20;2.10;;;15.70;99.90;;;;;;5072971;28;20045;-62
2023/07/20 01:02:39;;;;;;;5.95;2.70;;;15.70;99.90;;;;;;5076565;28;20052;-62
2023/07/20 01:05:06;;;;;;;5.47;2.60;;;15.60;99.90;;;;;;5076949;28;20041;-62
2023/07/20 01:07:44;;;;;;;4.20;2.10;;;15.50;99.90;;;;;;5075598;28;20052;-62
2023/07/20 01:10:24;;;;;;;4.72;2.20;;;15.50;99.90;;;;;;5076568;28;20047;-62
2023/07/20 01:12:52;;;;;;;5.05;2.00;;;15.50;99.90;;;;;;5076893;28;20044;-62
2023/07/20 01:15:19;;;;;;;4.22;2.20;;;15.50;99.90;;;;;;5076712;28;20120;-62
2023/07/20 01:17:45;;;;;;;4.40;2.30;;;15.60;99.90;;;;;;5076532;28;20119;-62
2023/07/20 01:20:14;;;;;;;5.28;2.35;;;15.50;99.90;;;;;;5076513;28;20045;-62
2023/07/20 01:23:05;;;;;;;5.20;2.00;;;15.50;99.90;;;;;;5076349;28;20052;-61
2023/07/20 01:26:02;;;;;;;4.25;1.83;;;15.50;99.90;;;;;;5076692;28;20051;-61
2023/07/20 01:28:45;;;;;;;4.05;1.80;;;15.50;99.90;;;;;;5058620;28;20052;-61
2023/07/20 01:31:20;;;;;;;5.55;1.88;;;15.50;99.90;;;;;;5076109;28;20509;-63
2023/07/20 01:33:48;;;;;;;3.83;2.00;;;15.50;99.90;;;;;;5076497;28;20037;-62
2023/07/20 01:36:16;;;;;;;4.07;1.70;;;15.50;99.90;;;;;;5076223;28;20048;-62
2023/07/20 01:38:42;;;;;;;7.07;1.80;;;15.50;99.90;;;;;;5076040;28;20036;-62
2023/07/20 01:41:09;;;;;;;4.43;2.00;;;15.50;99.90;;;;;;5076361;28;20041;-62
2023/07/20 01:43:34;;;;;;;5.03;2.10;;;15.50;99.90;;;;;;5074874;28;20048;-62
2023/07/20 01:46:00;;;;;;;3.53;1.50;;;15.50;99.90;;;;;;5076250;28;20036;-62
2023/07/20 01:48:26;;;;;;;4.30;1.90;;;15.40;99.90;;;;;;5074571;28;20553;-62
2023/07/20 01:50:51;;;;;;;4.10;1.75;;;15.40;99.90;;;;;;5076196;28;20029;-62
2023/07/20 01:53:17;;;;;;;5.00;2.13;;;15.40;99.90;;;;;;5075984;28;20071;-62
2023/07/20 01:55:43;;;;;;;3.83;1.70;;;15.40;99.90;;;;;;5076150;28;20041;-62
2023/07/20 01:58:09;;;;;;;3.88;1.67;;;15.30;99.90;;;;;;5076089;28;20544;-62
2023/07/20 02:00:37;;;;;;;3.55;1.40;;;15.30;99.90;;;;;;5091749;28;20059;-62
2023/07/20 02:03:03;;;;;;;3.67;1.58;;;15.30;99.90;;;;;;5074439;28;20044;-62
2023/07/20 02:05:28;;;;;;;4.20;1.40;;;15.30;99.90;;;;;;5075956;28;20130;-63
2023/07/20 02:07:54;;;;;;;3.88;2.00;;;15.20;99.90;;;;;;5075511;28;20048;-63
2023/07/20 02:10:20;;;;;;;5.10;2.53;;;15.10;99.90;;;;;;5091474;28;20076;-63
2023/07/20 02:12:46;;;;;;;3.88;1.80;;;15.20;99.90;;;;;;5075025;28;20562;-62
2023/07/20 02:15:13;;;;;;;4.68;2.65;;;15.10;99.90;;;;;;5057830;28;20480;-63
2023/07/20 02:17:40;;;;;;;5.97;2.63;;;15.10;99.90;;;;;;5074249;28;20172;-63
2023/07/20 02:20:11;;;;;;;4.05;1.95;;;15.10;99.90;;;;;;5074225;28;20036;-62
2023/07/20 02:22:37;;;;;;;4.53;2.70;;;15.00;99.90;;;;;;5075416;28;20039;-62
2023/07/20 02:25:07;;;;;;;5.78;2.80;;;15.00;99.90;;;;;;5075546;28;20032;-62
2023/07/20 02:27:37;;;;;;;4.43;1.90;;;14.90;99.90;;;;;;5073950;28;20041;-62
2023/07/20 02:30:03;;;;;;;5.15;2.30;;;14.80;99.90;;;;;;5073749;28;20048;-62
2023/07/20 02:32:31;;;;;;;3.40;1.63;;;14.80;99.90;;;;;;5075553;28;20045;-62
2023/07/20 02:34:58;;;;;;;4.20;1.90;;;14.80;99.90;;;;;;5075353;28;20059;-62
2023/07/20 02:37:24;;;;;;;6.05;3.00;;;14.80;99.90;;;;;;5075089;28;20037;-62
2023/07/20 02:39:50;;;;;;;5.05;2.42;;;14.80;99.90;;;;;;5074943;28;20044;-62
2023/07/20 02:42:16;;;;;;;5.80;3.50;;;14.80;99.90;;;;;;5073749;28;20076;-62
2023/07/20 02:44:41;;;;;;;5.18;2.38;;;14.70;99.90;;;;;;5073660;28;20051;-62
2023/07/20 02:47:07;;;;;;;4.90;2.83;;;14.70;99.90;;;;;;5074852;28;20497;-61
2023/07/20 02:49:33;;;;;;;5.65;2.88;;;14.60;99.90;;;;;;5073864;28;20047;-61
2023/07/20 02:51:59;;;;;;;4.28;2.17;;;14.60;99.90;;;;;;5073587;28;20045;-61
2023/07/20 02:54:25;;;;;;;5.05;2.85;;;14.60;99.90;;;;;;5073558;28;20045;-62
2023/07/20 02:56:51;;;;;;;4.85;3.00;;;14.60;99.90;;;;;;5074960;28;20111;-62
2023/07/20 02:59:16;;;;;;;6.22;2.75;;;14.50;99.90;;;;;;5074993;28;20392;-62
2023/07/20 03:01:42;;;;;;;5.55;3.65;;;14.50;99.90;;;;;;5074831;28;20397;-62
2023/07/20 03:04:10;;;;;;;4.00;2.13;;;14.50;99.90;;;;;;5074799;28;20382;-62
2023/07/20 03:06:36;;;;;;;5.85;2.95;;;14.40;99.90;;;;;;5074461;28;20119;-62
2023/07/20 03:09:03;;;;;;;5.13;3.20;;;14.40;99.90;;;;;;5074318;28;20044;-62
2023/07/20 03:11:32;;;;;;;7.82;4.78;;;14.40;99.90;;;;;;5074680;28;20481;-62
2023/07/20 03:13:57;;;;;;;5.75;3.10;;;14.40;99.90;;;;;;5074336;28;20041;-62
2023/07/20 03:16:24;;;;;;;6.63;5.20;;;14.40;99.90;;;;;;5074526;28;20041;-61
2023/07/20 03:18:50;;;;;;;6.10;3.13;;;14.30;99.90;;;;;;5074519;28;20480;-62
2023/07/20 03:21:16;;;;;;;6.68;3.40;;;14.30;99.90;;;;;;5074526;28;20051;-62
2023/07/20 03:23:42;;;;;;;6.75;4.00;;;14.30;99.90;;;;;;5073004;28;20044;-62
2023/07/20 03:26:09;;;;;;;5.68;3.53;;;14.30;99.90;;;;;;5074289;28;20052;-62
2023/07/20 03:28:35;;;;;;;7.07;5.32;;;14.20;99.90;;;;;;5074312;28;20041;-62
2023/07/20 03:31:02;;;;;;;5.20;3.20;;;14.30;99.90;;;;;;5073950;28;20052;-62
2023/07/20 03:33:29;;;;;;;6.60;5.70;;;14.20;99.90;;;;;;5073877;28;20101;-62
2023/07/20 03:35:55;;;;;;;6.72;5.65;;;14.20;99.90;;;;;;5073918;28;20044;-62
2023/07/20 03:38:22;;;;;;;6.03;4.35;;;14.20;99.90;;;;;;5074093;28;20393;-62
2023/07/20 03:40:56;;;;;;;5.63;3.17;;;14.10;99.90;;;;;;5074118;28;20040;-62
2023/07/20 03:43:23;;;;;;;5.90;4.40;;;14.10;99.90;;;;;;5074061;28;20045;-62
2023/07/20 03:45:50;;;;;;;7.10;3.88;;;14.10;99.90;;;;;;5074066;28;20174;-62
2023/07/20 03:48:17;;;;;;;4.95;2.60;;;14.10;99.90;;;;;;5072861;28;20063;-62
2023/07/20 03:50:45;;;;;;;4.97;3.05;;;14.10;99.90;;;;;;5073955;28;20063;-62
2023/07/20 03:53:15;;;;;;;4.55;2.70;;;14.10;99.90;;;;;;5073649;28;20044;-62
2023/07/20 03:55:51;;;;;;;5.53;3.97;;;14.10;99.90;;;;;;5073576;28;20094;-62
2023/07/20 03:58:17;;;;;;;4.80;2.90;;;14.10;99.90;;;;;;5073812;28;20106;-62
2023/07/20 04:00:47;;;;;;;4.95;3.55;;;14.10;99.90;;;;;;5073795;28;20033;-62
2023/07/20 04:03:14;;;;;;;6.07;4.07;;;14.00;99.90;;;;;;5073652;28;20047;-62
2023/07/20 04:05:39;;;;;;;6.60;5.47;;;14.00;99.90;;;;;;5073705;28;20097;-61
2023/07/20 04:08:05;;;;;;;6.70;4.97;;;14.00;99.90;;;;;;5073591;28;20119;-62
2023/07/20 04:10:31;;;;;;;6.72;4.70;;;13.90;99.90;;;;;;5073569;28;20110;-61
2023/07/20 04:12:57;;;;;;;6.45;5.15;;;13.80;99.90;;;;;;5073580;28;20044;-62
2023/07/20 04:15:22;;;;;;;8.00;6.90;;;13.70;99.90;;;;;;5073521;28;20033;-62
2023/07/20 04:17:48;;;;;;;7.25;5.10;;;13.70;99.90;;;;;;5073230;28;20033;-62
2023/07/20 04:20:14;;;;;;;7.40;5.95;;;13.70;99.90;;;;;;5072228;28;20036;-62
2023/07/20 04:22:40;;;;;;;6.75;5.18;;;13.70;99.90;;;;;;5073487;28;20036;-62
2023/07/20 04:25:09;;;;;;;6.55;4.95;;;13.60;99.90;;;;;;5073335;28;20044;-62
2023/07/20 04:27:36;;;;;;;6.72;5.45;;;13.60;99.90;;;;;;5073194;28;20036;-62
2023/07/20 04:30:03;;;;;;;6.68;4.82;;;13.60;99.90;;;;;;5088600;28;20125;-62
2023/07/20 04:32:30;;;;;;;6.70;5.22;;;13.60;99.90;;;;;;5073378;28;20041;-62
2023/07/20 04:34:59;;;;;;;6.43;4.57;;;13.60;99.90;;;;;;5073023;28;20040;-62
2023/07/20 04:37:25;;;;;;;7.25;4.88;;;13.60;99.90;;;;;;5071531;28;20185;-61
2023/07/20 04:39:50;;;;;;;7.00;4.85;;;13.60;99.90;;;;;;5073017;28;20076;-62
2023/07/20 04:42:20;;;;;;;7.25;5.32;;;13.60;99.90;;;;;;5073320;28;20115;-62
2023/07/20 04:44:45;;;;;;;7.90;5.10;;;13.70;99.90;;;;;;5072995;28;20040;-62
2023/07/20 04:47:11;;;;;;;7.72;5.65;;;13.70;99.90;;;;;;5073150;28;20035;-62
2023/07/20 04:49:39;;;;;;;6.72;4.65;;;13.60;99.90;;;;;;5054833;28;20040;-62
2023/07/20 04:52:05;;;;;;;8.60;5.13;;;13.70;99.90;;;;;;5073139;28;20032;-62
2023/07/20 04:54:31;;;;;;;6.68;5.05;;;13.70;99.90;;;;;;5071670;28;20036;-62
2023/07/20 04:56:57;;;;;;;7.55;4.65;;;13.70;99.90;;;;;;5072846;28;20041;-62
2023/07/20 04:59:23;;;;;;;6.60;4.50;;;13.70;99.90;;;;;;5071552;28;20041;-62
2023/07/20 05:01:48;;;;;;;7.40;5.00;;;13.70;99.90;;;;;;5072746;28;20043;-62
2023/07/20 05:04:14;;;;;;;7.82;4.90;;;13.80;99.90;;;;;;5071519;28;20044;-62
2023/07/20 05:06:40;;;;;;;7.47;4.75;;;13.90;99.90;;;;;;5072645;28;20527;-62
2023/07/20 05:09:06;;;;;;;6.43;4.22;;;14.20;99.90;;;;;;5072968;28;20089;-62
2023/07/20 05:11:32;;;;;;;5.57;3.60;;;14.80;99.90;;;;;;5071383;28;20048;-62
2023/07/20 05:13:58;;;;;;;6.20;3.13;;;15.40;99.90;;;;;;5088199;28;20045;-62
2023/07/20 05:16:24;;;;;;;6.28;3.13;;;15.90;99.90;;;;;;5072950;28;20036;-62
2023/07/20 05:18:49;;;;;;;5.10;2.72;;;16.40;99.90;;;;;;5072866;28;20484;-62
2023/07/20 05:21:15;;;;;;;5.45;2.70;;;17.00;99.90;;;;;;5072872;28;20583;-62
2023/07/20 05:23:41;;;;;;;6.15;2.60;;;17.50;99.90;;;;;;5072819;28;20473;-62
2023/07/20 05:26:07;;;;;;;4.85;2.17;;;18.00;99.90;;;;;;5072936;28;20480;-62
2023/07/20 05:28:33;;;;;;;5.57;2.08;;;18.70;99.90;;;;;;5072687;28;20042;-62
2023/07/20 05:30:59;;;;;;;5.13;2.00;;;19.00;99.90;;;;;;5072318;28;20135;-62
2023/07/20 05:33:25;;;;;;;6.55;2.00;;;19.70;99.90;;;;;;5072761;28;20041;-62
2023/07/20 05:35:51;;;;;;;4.82;1.90;;;20.60;99.90;;;;;;5072764;28;20560;-62
2023/07/20 05:38:16;;;;;;;5.47;1.83;;;21.00;99.90;;;;;;5071230;28;20047;-62
2023/07/20 05:40:44;;;;;;;4.20;1.52;;;21.30;99.90;;;;;;5072346;28;20492;-62
2023/07/20 05:43:11;;;;;;;5.88;1.73;;;21.60;99.90;;;;;;5071492;28;20492;-62
2023/07/20 05:45:37;;;;;;;4.40;1.48;;;21.50;99.90;;;;;;5072398;28;20510;-62
2023/07/20 05:48:03;;;;;;;5.15;1.25;;;20.90;99.90;;;;;;5072118;28;20036;-62
2023/07/20 05:50:28;;;;;;;4.90;1.50;;;21.00;99.90;;;;;;5075889;28;20511;-62
2023/07/20 05:52:54;;;;;;;4.72;1.40;;;21.30;99.90;;;;;;5074905;28;20037;-62
2023/07/20 05:55:20;;;;;;;4.00;1.23;;;21.40;99.90;;;;;;5075876;28;20085;-62
2023/07/20 05:57:56;;;;;;;3.55;1.20;;;22.10;99.90;;;;;;5075767;28;20028;-62
2023/07/20 06:00:26;;;;;;;5.00;1.00;;;22.40;99.90;;;;;;5091171;28;20040;-62
2023/07/20 06:02:54;;;;;;;4.40;1.10;;;22.70;99.90;;;;;;5091207;28;20059;-63
2023/07/20 06:05:20;;;;;;;3.45;1.10;;;22.60;99.90;;;;;;5076047;28;20047;-62
2023/07/20 06:07:46;;;;;;;4.90;1.20;;;22.90;99.90;;;;;;5075565;28;20044;-62
2023/07/20 06:10:12;;;;;;;4.13;1.15;;;22.90;99.10;;;;;;5075540;28;20107;-62
2023/07/20 06:12:38;;;;;;;3.35;1.10;;;22.80;99.90;;;;;;5075540;28;20036;-63
2023/07/20 06:15:05;;;;;;;3.83;1.10;;;23.00;99.10;;;;;;5057540;28;20032;-63
2023/07/20 06:17:31;;;;;;;4.20;1.20;;;22.60;98.70;;;;;;5075748;28;20434;-62
2023/07/20 06:19:57;;;;;;;3.47;1.00;;;22.60;99.40;;;;;;5075695;28;20480;-63
2023/07/20 06:22:23;;;;;;;3.45;1.00;;;22.80;99.10;;;;;;5075433;28;20037;-62
2023/07/20 06:24:48;;;;;;;3.42;1.10;;;22.80;99.20;;;;;;5075586;28;20266;-62
2023/07/20 06:27:14;;;;;;;3.03;0.90;;;23.40;99.60;;;;;;5074118;28;20485;-62
2023/07/20 06:29:40;;;;;;;3.13;1.02;;;23.70;98.90;;;;;;5073834;28;20391;-64
2023/07/20 06:32:06;;;;;;;3.42;1.00;;;23.90;97.70;;;;;;5075782;28;20075;-62
2023/07/20 06:34:36;;;;;;;3.85;0.95;;;23.70;96.80;;;;;;5091027;28;20105;-62
2023/07/20 06:37:03;;;;;;;2.78;0.82;;;23.80;97.00;;;;;;5075132;28;20045;-62
2023/07/20 06:39:29;;;;;;;3.08;0.90;;;23.90;96.70;;;;;;5075363;28;20044;-62
2023/07/20 06:41:55;;;;;;;4.47;0.90;;;23.70;97.60;;;;;;5074969;28;20037;-62
2023/07/20 06:44:21;;;;;;;2.90;0.95;;;23.70;96.40;;;;;;5090610;28;20063;-62
2023/07/20 06:46:46;;;;;;;3.88;0.93;;;23.70;96.30;;;;;;5075218;28;20040;-61
2023/07/20 06:49:27;;;;;;;2.75;0.82;;;23.90;96.20;;;;;;5074800;28;20037;-62
2023/07/20 06:51:53;;;;;;;4.40;0.95;;;24.20;94.10;;;;;;5074817;28;20119;-62
2023/07/20 06:54:19;;;;;;;3.53;1.00;;;24.40;95.10;;;;;;5074778;28;20068;-62
2023/07/20 06:56:45;;;;;;;3.35;0.90;;;24.10;94.50;;;;;;5074631;28;20037;-62
2023/07/20 06:59:11;;;;;;;4.45;1.00;;;23.70;94.50;;;;;;5073106;28;20044;-62
2023/07/20 07:01:36;;;;;;;3.42;0.90;;;23.30;95.10;;;;;;5074639;28;20124;-62
2023/07/20 07:04:03;;;;;;;3.55;0.90;;;23.50;96.40;;;;;;5074781;28;20094;-62
2023/07/20 07:06:29;;;;;;;3.92;0.90;;;23.20;95.90;;;;;;5074855;28;20494;-62
2023/07/20 07:08:55;;;;;;;3.67;1.00;;;22.70;95.30;;;;;;5074727;28;20043;-62
2023/07/20 07:11:21;;;;;;;4.72;1.08;;;22.30;95.90;;;;;;5074369;28;20036;-62
2023/07/20 07:13:50;;;;;;;3.50;1.08;;;22.30;96.80;;;;;;5074697;28;20043;-62
2023/07/20 07:16:18;;;;;;;3.58;1.10;;;22.10;96.70;;;;;;5073087;28;20040;-62
2023/07/20 07:18:47;;;;;;;3.70;1.00;;;22.30;97.30;;;;;;5074241;28;20076;-62
2023/07/20 07:21:13;;;;;;;3.45;1.00;;;23.00;96.90;;;;;;5073209;28;20512;-62
2023/07/20 07:23:39;;;;;;;4.35;1.00;;;23.60;96.00;;;;;;5072993;28;20051;-62
2023/07/20 07:26:05;;;;;;;5.13;1.00;;;24.00;95.30;;;;;;5074461;28;20036;-62
2023/07/20 07:28:31;;;;;;;4.93;1.00;;;24.30;93.90;;;;;;5072700;28;20036;-63
2023/07/20 07:30:57;;;;;;;3.78;0.90;;;24.30;93.00;;;;;;5074032;28;20127;-62
2023/07/20 07:33:23;;;;;;;4.68;1.00;;;24.10;93.30;;;;;;5072652;28;20045;-62
2023/07/20 07:35:51;;;;;;;5.93;1.10;;;24.00;92.50;;;;;;5074291;28;20044;-62
2023/07/20 07:38:17;;;;;;;4.30;0.95;;;23.60;92.40;;;;;;5072763;28;20090;-63
2023/07/20 07:40:42;;;;;;;3.40;1.00;;;22.80;91.20;;;;;;5073919;28;20041;-62
2023/07/20 07:43:09;;;;;;;5.25;1.20;;;22.00;91.90;;;;;;5074112;28;20124;-62
2023/07/20 07:45:38;;;;;;;5.47;1.10;;;21.70;93.20;;;;;;5073722;28;20044;-61
2023/07/20 07:48:05;;;;;;;4.60;1.00;;;21.70;93.90;;;;;;5074131;28;20044;-65
2023/07/20 07:50:31;;;;;;;2.90;0.85;;;22.00;93.90;;;;;;5073555;28;20032;-63
2023/07/20 07:52:57;;;;;;;4.68;1.00;;;22.30;93.60;;;;;;5089478;28;20059;-63
2023/07/20 07:55:24;;;;;;;3.55;1.05;;;22.30;92.30;;;;;;5073809;28;20474;-62
2023/07/20 07:57:50;;;;;;;5.15;1.05;;;22.30;91.90;;;;;;5073911;28;20115;-64
2023/07/20 08:00:18;;;;;;;3.75;1.00;;;22.50;92.20;;;;;;5073542;28;20128;-63
2023/07/20 08:02:46;;;;;;;2.35;0.90;;;22.50;91.70;;;;;;5073882;28;20093;-61
2023/07/20 08:05:12;;;;;;;4.00;1.00;;;22.50;92.30;;;;;;5072745;28;20040;-62
2023/07/20 08:07:38;;;;;;;3.88;1.00;;;22.90;92.40;;;;;;5073579;28;20086;-61
2023/07/20 08:10:05;;;;;;;3.92;1.02;;;23.30;92.60;;;;;;5073395;28;20119;-62
2023/07/20 08:12:31;;;;;;;4.30;1.10;;;23.30;92.00;;;;;;5072923;28;20050;-61
2023/07/20 08:14:57;;;;;;;4.38;1.17;;;22.80;91.80;;;;;;5073291;28;20075;-61
2023/07/20 08:17:23;;;;;;;3.92;1.02;;;22.00;91.60;;;;;;5072368;28;20071;-62
2023/07/20 08:19:48;;;;;;;3.38;0.90;;;21.90;93.30;;;;;;5073243;28;20071;-62
2023/07/20 08:22:15;;;;;;;3.80;0.90;;;22.40;93.40;;;;;;5071966;28;20040;-61
2023/07/20 08:24:44;;;;;;;3.25;0.95;;;22.70;92.60;;;;;;5073291;28;20094;-62
2023/07/20 08:27:10;;;;;;;4.43;1.15;;;23.00;91.50;;;;;;5073330;28;20036;-61
2023/07/20 08:29:36;;;;;;;3.88;0.90;;;23.30;91.60;;;;;;5073162;28;20090;-62
2023/07/20 08:32:04;;;;;;;3.40;0.98;;;23.40;90.50;;;;;;5071941;28;20040;-62
2023/07/20 08:34:31;;;;;;;2.90;0.90;;;23.50;90.00;;;;;;5073118;28;20040;-62
2023/07/20 08:36:58;;;;;;;3.28;0.90;;;23.10;88.20;;;;;;5071932;28;20036;-62
2023/07/20 08:39:24;;;;;;;3.08;0.98;;;22.60;89.10;;;;;;5071824;28;20101;-61
2023/07/20 08:41:51;;;;;;;4.78;0.98;;;22.20;90.00;;;;;;5073315;28;20041;-61
2023/07/20 08:44:17;;;;;;;3.28;1.00;;;22.30;90.50;;;;;;5073101;28;20423;-61
2023/07/20 08:46:44;;;;;;;2.30;0.80;;;22.50;90.40;;;;;;5073196;28;20040;-61
2023/07/20 08:49:11;;;;;;;4.45;1.13;;;22.70;86.80;;;;;;5072863;28;20048;-61
2023/07/20 08:51:38;;;;;;;5.15;1.10;;;22.80;86.80;;;;;;5071986;28;20548;-61
2023/07/20 08:54:04;;;;;;;3.97;1.20;;;22.80;86.90;;;;;;5073165;28;20546;-62
2023/07/20 08:56:31;;;;;;;3.35;1.00;;;23.10;87.80;;;;;;5071928;28;20037;-62
2023/07/20 08:58:58;;;;;;;3.85;1.10;;;23.00;86.70;;;;;;5073223;28;20101;-61
2023/07/20 09:01:24;;;;;;;4.80;1.05;;;22.70;85.50;;;;;;5072706;28;20040;-61
2023/07/20 09:03:50;;;;;;;3.33;1.17;;;22.70;86.70;;;;;;5088648;28;20047;-62
2023/07/20 09:06:16;;;;;;;3.40;1.00;;;22.90;87.40;;;;;;5072712;28;20037;-61
2023/07/20 09:08:42;;;;;;;3.95;1.00;;;23.10;86.20;;;;;;5072888;28;20047;-62
2023/07/20 09:11:11;;;;;;;3.75;1.05;;;23.30;86.30;;;;;;5071797;28;20040;-62
2023/07/20 09:13:38;;;;;;;4.18;1.10;;;23.50;85.20;;;;;;5072871;28;20068;-62
2023/07/20 09:16:04;;;;;;;4.13;1.10;;;23.60;80.90;;;;;;5073029;28;20032;-62
2023/07/20 09:18:32;;;;;;;2.53;0.90;;;23.60;83.00;;;;;;5072622;28;20036;-62
2023/07/20 09:21:06;;;;;;;4.63;0.98;;;23.30;82.10;;;;;;5072721;28;20032;-62
2023/07/20 09:23:32;;;;;;;3.60;1.05;;;23.40;82.80;;;;;;5076084;28;20071;-62
2023/07/20 09:25:59;;;;;;;2.80;0.90;;;23.50;78.40;;;;;;5076563;28;20033;-62
2023/07/20 09:28:25;;;;;;;4.07;1.08;;;23.50;80.90;;;;;;5075553;28;20430;-62
2023/07/20 09:30:51;;;;;;;2.25;0.80;;;23.70;81.70;;;;;;5076214;28;20057;-62
2023/07/20 09:33:24;;;;;;;3.38;1.10;;;23.50;80.40;;;;;;5076356;28;20076;-61
2023/07/20 09:35:50;;;;;;;3.20;1.10;;;23.80;82.40;;;;;;5075398;28;20048;-62
2023/07/20 09:38:16;;;;;;;3.53;1.10;;;23.80;80.90;;;;;;5076524;28;20043;-61
2023/07/20 09:40:42;;;;;;;3.03;0.95;;;23.60;79.70;;;;;;5076532;28;20166;-62
2023/07/20 09:43:09;;;;;;;3.63;1.00;;;23.70;80.20;;;;;;5075149;28;20127;-61
2023/07/20 09:45:40;;;;;;;3.30;1.05;;;23.70;79.80;;;;;;5074798;28;20043;-62
2023/07/20 09:48:07;;;;;;;2.47;1.00;;;23.60;78.00;;;;;;5075138;28;20041;-62
2023/07/20 09:50:49;;;;;;;3.10;1.05;;;23.30;74.00;;;;;;5075044;28;20295;-61
2023/07/20 09:53:19;;;;;;;1.98;0.80;;;23.30;75.50;;;;;;5076349;28;20033;-62
2023/07/20 09:55:47;;;;;;;3.90;1.05;;;23.60;78.50;;;;;;5076297;28;20503;-62
2023/07/20 09:58:14;;;;;;;3.22;1.10;;;23.90;79.60;;;;;;5076125;28;20392;-62
2023/07/20 10:00:44;;;;;;;2.33;0.90;;;23.90;74.40;;;;;;5076142;28;20048;-62
2023/07/20 10:03:12;;;;;;;3.83;1.10;;;24.00;76.00;;;;;;5075770;28;20307;-62
2023/07/20 10:05:43;;;;;;;4.32;1.05;;;23.90;74.90;;;;;;5075746;28;20044;-62
2023/07/20 10:08:12;;;;;;;4.05;1.10;;;23.90;76.40;;;;;;5076061;28;20413;-61
2023/07/20 10:10:42;;;;;;;3.70;1.20;;;24.10;76.20;;;;;;5074230;28;20055;-61
2023/07/20 10:13:21;;;;;;;3.78;1.10;;;24.20;73.80;;;;;;5074688;28;20074;-61
2023/07/20 10:15:54;;;;;;;4.35;1.10;;;24.00;74.10;;;;;;5074394;28;20032;-62
2023/07/20 10:18:29;;;;;;;2.55;0.90;;;23.60;73.20;;;;;;5075472;28;20052;-61
2023/07/20 10:20:56;;;;;;;3.88;1.08;;;23.20;74.20;;;;;;5075723;28;20047;-61
2023/07/20 10:23:23;;;;;;;4.05;1.20;;;23.10;73.90;;;;;;5075409;28;20093;-61
2023/07/20 10:25:50;;;;;;;5.30;1.20;;;23.50;76.00;;;;;;5074255;28;20083;-62
2023/07/20 10:28:16;;;;;;;3.58;1.10;;;23.50;75.00;;;;;;5075205;28;20044;-62
2023/07/20 10:30:43;;;;;;;2.90;1.13;;;23.40;75.00;;;;;;5075266;28;20504;-61
2023/07/20 10:33:09;;;;;;;3.15;1.00;;;23.30;76.30;;;;;;5073940;28;20041;-62
2023/07/20 10:35:54;;;;;;;3.05;1.00;;;23.20;76.30;;;;;;5073457;28;20044;-62
2023/07/20 10:38:38;;;;;;;4.47;1.20;;;23.10;78.60;;;;;;5075488;28;20073;-62
2023/07/20 10:41:04;;;;;;;2.95;1.00;;;23.10;77.90;;;;;;5075097;28;20045;-62
2023/07/20 10:43:30;;;;;;;4.57;1.13;;;23.10;77.60;;;;;;5073727;28;20047;-62
2023/07/20 10:45:57;;;;;;;4.93;1.20;;;22.80;77.70;;;;;;5075062;28;20040;-62
2023/07/20 10:48:24;;;;;;;4.32;1.30;;;22.70;78.70;;;;;;5074991;28;20043;-62
2023/07/20 10:51:15;;;;;;;3.60;1.20;;;22.60;78.50;;;;;;5073528;28;20127;-62
2023/07/20 10:53:41;;;;;;;2.72;1.02;;;22.60;78.80;;;;;;5074856;28;20047;-62
2023/07/20 10:56:13;;;;;;;3.60;1.20;;;22.70;80.30;;;;;;5075084;28;20484;-62
2023/07/20 10:58:41;;;;;;;3.10;1.00;;;22.80;80.80;;;;;;5073873;28;20083;-62
2023/07/20 11:01:08;;;;;;;3.67;1.10;;;22.90;80.40;;;;;;5074781;28;20477;-62
2023/07/20 11:03:39;;;;;;;3.38;1.15;;;22.90;80.30;;;;;;5074987;28;20093;-62
2023/07/20 11:06:24;;;;;;;3.75;1.20;;;22.90;80.30;;;;;;5074613;28;20037;-62
2023/07/20 11:08:56;;;;;;;4.13;1.20;;;23.00;78.50;;;;;;5074420;28;20147;-61
2023/07/20 11:11:33;;;;;;;3.85;1.10;;;22.80;77.30;;;;;;5074422;28;20043;-61
2023/07/20 11:14:04;;;;;;;2.92;1.20;;;22.70;78.60;;;;;;5074679;28;20484;-63
2023/07/20 11:16:41;;;;;;;3.03;1.10;;;22.70;79.90;;;;;;5074559;28;20495;-62
2023/07/20 11:19:19;;;;;;;3.85;1.08;;;22.50;77.90;;;;;;5073486;28;20076;-61
2023/07/20 11:21:51;;;;;;;4.70;1.13;;;22.40;77.20;;;;;;5074253;28;20045;-61
2023/07/20 11:24:18;;;;;;;3.13;0.90;;;22.50;79.20;;;;;;5073203;28;20551;-61
2023/07/20 11:26:54;;;;;;;3.17;1.00;;;22.70;80.50;;;;;;5074475;28;20480;-61
2023/07/20 11:29:23;;;;;;;4.28;1.17;;;22.70;81.10;;;;;;5088782;28;20105;-62
2023/07/20 11:31:49;;;;;;;4.13;1.20;;;22.70;84.30;;;;;;5074060;28;20145;-62
2023/07/20 11:34:16;;;;;;;3.95;1.08;;;22.70;87.20;;;;;;5056381;28;20485;-61
2023/07/20 11:36:45;;;;;;;3.15;1.00;;;22.90;88.20;;;;;;5074005;28;20111;-61
2023/07/20 11:39:16;;;;;;;4.43;1.10;;;23.30;86.90;;;;;;5073962;28;20048;-62
2023/07/20 11:41:55;;;;;;;4.13;1.10;;;23.30;86.10;;;;;;5074196;28;20037;-62
2023/07/20 11:44:31;;;;;;;4.63;1.23;;;23.20;86.80;;;;;;5074185;28;20043;-63
2023/07/20 11:47:28;;;;;;;3.22;1.00;;;23.30;88.30;;;;;;5072825;28;20079;-63
2023/07/20 11:49:54;;;;;;;3.75;1.10;;;23.40;87.30;;;;;;5073406;28;20048;-63
2023/07/20 11:52:23;;;;;;;3.10;1.10;;;23.50;87.60;;;;;;5073682;28;20044;-61
2023/07/20 11:54:49;;;;;;;5.30;1.20;;;23.50;87.10;;;;;;5073817;28;20037;-61
2023/07/20 11:57:21;;;;;;;4.43;1.10;;;23.40;86.30;;;;;;5073568;28;20101;-64
2023/07/20 11:59:57;;;;;;;2.95;1.00;;;23.10;86.60;;;;;;5073542;28;20037;-61
2023/07/20 12:02:25;;;;;;;4.00;1.20;;;23.10;88.10;;;;;;5055587;28;20044;-62
2023/07/20 12:04:52;;;;;;;3.30;1.00;;;22.90;87.40;;;;;;5089160;28;20048;-62
2023/07/20 12:07:19;;;;;;;3.67;1.25;;;22.80;85.70;;;;;;5073446;28;20047;-62
2023/07/20 12:10:02;;;;;;;4.80;1.17;;;22.60;84.60;;;;;;5055682;28;20067;-61
2023/07/20 12:12:28;;;;;;;2.83;1.10;;;22.30;82.10;;;;;;5073707;28;20048;-63
2023/07/20 12:14:54;;;;;;;4.22;1.10;;;22.40;85.90;;;;;;5089034;28;20488;-62
2023/07/20 12:17:20;;;;;;;3.10;1.13;;;22.70;87.50;;;;;;5073324;28;20128;-61
2023/07/20 12:19:46;;;;;;;2.92;1.00;;;23.00;88.10;;;;;;5088921;28;20044;-62
2023/07/20 12:22:12;;;;;;;4.28;1.20;;;23.30;87.90;;;;;;5055535;28;20045;-62
2023/07/20 12:24:37;;;;;;;4.32;1.15;;;23.50;87.90;;;;;;5072297;28;20059;-62
2023/07/20 12:27:05;;;;;;;3.35;1.00;;;23.60;87.10;;;;;;5073317;28;20043;-62
2023/07/20 12:29:35;;;;;;;2.85;1.08;;;23.70;87.10;;;;;;5088867;28;20378;-63
2023/07/20 12:32:01;;;;;;;4.13;1.10;;;23.80;87.40;;;;;;5073480;28;20067;-62
2023/07/20 12:34:27;;;;;;;3.72;1.20;;;23.90;84.50;;;;;;5071922;28;20477;-63
2023/07/20 12:36:53;;;;;;;3.08;1.10;;;24.10;85.90;;;;;;5088908;28;20194;-62
2023/07/20 12:39:19;;;;;;;3.80;1.23;;;24.20;86.90;;;;;;5071803;28;20040;-61
2023/07/20 12:41:44;;;;;;;3.85;1.20;;;24.00;86.30;;;;;;5073395;28;20496;-62
2023/07/20 12:44:10;;;;;;;3.70;1.27;;;24.00;85.50;;;;;;5071713;28;20062;-62
2023/07/20 12:46:38;;;;;;;3.70;1.45;;;23.80;85.30;;;;;;5073267;28;20040;-62
2023/07/20 12:49:07;;;;;;;4.70;1.60;;;23.40;87.70;;;;;;5072926;28;20070;-62
2023/07/20 12:51:33;;;;;;;4.20;1.40;;;23.10;88.40;;;;;;5073116;28;20120;-63